Time;durP1;ratioP1;P1;durP2;ratioP2;P2;SDS_P1;SDS_P2;PMS_P1;PMS_P2;Temp;Humidity;BMP_temperature;BMP_pressure;BME280_temperature;BME280_humidity;BME280_pressure;Samples;Min_cycle;Max_cycle;Signal;HPM_P1;HPM_P2
2021/11/20 00:00:41;;;;;;;11.23;10.07;;;;;;;5.46;100.00;99314.16;4981953;28;20225;-73
2021/11/20 00:03:11;;;;;;;10.47;9.37;;;;;;;5.45;100.00;99311.66;4971341;28;20216;-71
2021/11/20 00:05:42;;;;;;;11.73;9.37;;;;;;;5.51;100.00;99311.25;4944287;28;20233;-73
2021/11/20 00:08:11;;;;;;;11.00;9.40;;;;;;;5.53;100.00;99300.66;4973899;28;20276;-72
2021/11/20 00:10:47;;;;;;;11.33;9.80;;;;;;;5.46;100.00;99301.00;4967799;28;20327;-73
2021/11/20 00:13:15;;;;;;;13.57;10.30;;;;;;;5.51;100.00;99300.72;4974357;28;20724;-73
2021/11/20 00:15:45;;;;;;;13.50;9.97;;;;;;;5.47;100.00;99297.44;4974343;28;20233;-73
2021/11/20 00:18:16;;;;;;;12.03;10.03;;;;;;;5.50;100.00;99297.28;4974816;28;20762;-73
2021/11/20 00:20:52;;;;;;;10.83;9.50;;;;;;;5.47;100.00;99288.72;4951328;28;20232;-73
2021/11/20 00:23:23;;;;;;;12.70;10.70;;;;;;;5.46;100.00;99301.00;4974111;28;20296;-74
2021/11/20 00:25:54;;;;;;;13.50;11.10;;;;;;;5.49;100.00;99295.59;4961505;28;20883;-73
2021/11/20 00:28:39;;;;;;;11.40;10.13;;;;;;;5.61;100.00;99299.19;4976152;28;20198;-73
2021/11/20 00:31:09;;;;;;;12.03;10.37;;;;;;;5.57;100.00;99302.13;4976654;28;20201;-73
2021/11/20 00:33:39;;;;;;;10.43;9.13;;;;;;;5.60;100.00;99299.28;4975234;28;20206;-74
2021/11/20 00:36:09;;;;;;;9.87;8.83;;;;;;;5.53;100.00;99298.84;4941837;28;20222;-73
2021/11/20 00:38:38;;;;;;;12.23;10.33;;;;;;;5.58;100.00;99298.56;4974878;28;20210;-73
2021/11/20 00:41:11;;;;;;;11.67;10.47;;;;;;;5.56;100.00;99297.81;4969483;28;20315;-73
2021/11/20 00:43:40;;;;;;;17.00;11.60;;;;;;;5.47;100.00;99294.81;4985604;28;20676;-73
2021/11/20 00:46:09;;;;;;;13.37;10.57;;;;;;;5.60;100.00;99296.66;4974613;28;20209;-72
2021/11/20 00:48:39;;;;;;;13.63;11.63;;;;;;;5.48;100.00;99296.50;4979962;28;20292;-73
2021/11/20 00:51:11;;;;;;;11.40;9.47;;;;;;;5.65;100.00;99300.66;4942849;28;20707;-72
2021/11/20 00:53:39;;;;;;;13.83;10.70;;;;;;;5.55;100.00;99293.50;4974209;28;20213;-73
2021/11/20 00:56:08;;;;;;;12.60;10.20;;;;;;;5.57;100.00;99294.25;4960276;28;20217;-72
2021/11/20 00:58:36;;;;;;;12.87;11.40;;;;;;;5.54;100.00;99297.06;4979719;28;20201;-73
2021/11/20 01:01:07;;;;;;;13.67;10.47;;;;;;;5.56;100.00;99296.00;4977099;28;20229;-72
2021/11/20 01:03:35;;;;;;;12.77;11.40;;;;;;;5.56;100.00;99290.75;4974915;28;20210;-72
2021/11/20 01:06:05;;;;;;;13.37;10.60;;;;;;;5.66;100.00;99293.63;4972073;28;20650;-72
2021/11/20 01:08:36;;;;;;;11.50;9.97;;;;;;;5.58;100.00;99290.66;4954024;28;20228;-72
2021/11/20 01:11:06;;;;;;;12.60;10.73;;;;;;;5.58;100.00;99288.03;4972273;28;20697;-73
2021/11/20 01:13:35;;;;;;;11.67;10.10;;;;;;;5.59;100.00;99268.69;4971392;28;20690;-73
2021/11/20 01:16:06;;;;;;;12.50;10.70;;;;;;;5.72;100.00;99279.25;4974338;28;20217;-73
2021/11/20 01:18:35;;;;;;;11.63;10.43;;;;;;;5.68;100.00;99278.59;4979672;28;20212;-72
2021/11/20 01:21:05;;;;;;;11.83;9.77;;;;;;;5.64;100.00;99279.75;4964868;28;20280;-72
2021/11/20 01:23:34;;;;;;;16.87;11.20;;;;;;;5.62;100.00;99282.47;4944960;28;20225;-72
2021/11/20 01:26:03;;;;;;;13.53;10.43;;;;;;;5.59;100.00;99268.69;4946669;28;20205;-73
2021/11/20 01:28:34;;;;;;;11.07;9.90;;;;;;;5.53;100.00;99279.59;4974608;28;20206;-71
2021/11/20 01:31:04;;;;;;;13.77;11.97;;;;;;;5.62;100.00;99277.19;4975971;28;20866;-73
2021/11/20 01:33:33;;;;;;;11.70;10.50;;;;;;;5.58;100.00;99280.16;4972068;28;20680;-73
2021/11/20 01:36:01;;;;;;;14.30;10.67;;;;;;;5.55;100.00;99272.47;4961448;28;20201;-73
2021/11/20 01:38:30;;;;;;;12.83;10.50;;;;;;;5.54;100.00;99268.16;4980197;28;20209;-72
2021/11/20 01:40:59;;;;;;;13.57;10.30;;;;;;;5.60;100.00;99270.38;4947517;28;21206;-72
2021/11/20 01:43:27;;;;;;;13.60;11.13;;;;;;;5.63;100.00;99265.72;4977111;28;20328;-73
2021/11/20 01:45:57;;;;;;;13.23;10.73;;;;;;;5.72;100.00;99266.09;4971685;28;20209;-72
2021/11/20 01:48:50;;;;;;;13.63;11.27;;;;;;;5.67;100.00;99261.13;4974020;28;20236;-73
2021/11/20 01:51:20;;;;;;;12.87;11.20;;;;;;;5.74;100.00;99270.28;4965793;28;20209;-73
2021/11/20 01:53:54;;;;;;;12.93;10.23;;;;;;;5.83;100.00;99249.56;4970445;28;20224;-73
2021/11/20 01:56:29;;;;;;;14.80;11.03;;;;;;;5.69;100.00;99256.59;4973226;28;20215;-72
2021/11/20 01:59:03;;;;;;;13.60;11.33;;;;;;;5.80;100.00;99255.91;4946312;28;20213;-73
2021/11/20 02:01:36;;;;;;;14.00;11.23;;;;;;;5.70;100.00;99252.19;4975536;28;20210;-73
2021/11/20 02:04:09;;;;;;;12.57;11.27;;;;;;;5.71;100.00;99251.25;4976645;28;20252;-73
2021/11/20 02:06:46;;;;;;;12.97;11.60;;;;;;;5.63;100.00;99247.31;4981790;28;20213;-73
2021/11/20 02:09:20;;;;;;;13.53;11.37;;;;;;;5.65;100.00;99249.88;4980368;28;20310;-73
2021/11/20 02:11:52;;;;;;;12.47;10.23;;;;;;;5.65;100.00;99240.16;4983362;28;20210;-72
2021/11/20 02:14:22;;;;;;;11.33;10.23;;;;;;;5.61;100.00;99241.31;4949917;28;20256;-73
2021/11/20 02:16:54;;;;;;;11.93;10.67;;;;;;;5.61;100.00;99246.59;4974842;28;20268;-73
2021/11/20 02:19:27;;;;;;;12.87;10.80;;;;;;;5.67;100.00;99247.13;4974328;28;20689;-73
2021/11/20 02:21:58;;;;;;;12.87;10.70;;;;;;;5.57;100.00;99249.53;4962364;28;21019;-73
2021/11/20 02:24:27;;;;;;;12.30;10.50;;;;;;;5.56;100.00;99232.06;4979554;28;20833;-72
2021/11/20 02:26:54;;;;;;;12.03;10.73;;;;;;;5.53;100.00;99233.09;4968130;28;20662;-73
2021/11/20 02:29:24;;;;;;;12.00;10.70;;;;;;;5.53;100.00;99232.28;4945359;28;20221;-73
2021/11/20 02:31:55;;;;;;;14.10;10.73;;;;;;;5.54;100.00;99239.22;4977532;28;20206;-72
2021/11/20 02:34:27;;;;;;;11.07;9.63;;;;;;;5.59;100.00;99239.75;4976291;28;20228;-72
2021/11/20 02:36:55;;;;;;;12.57;10.37;;;;;;;5.56;100.00;99232.06;4975377;28;20218;-72
2021/11/20 02:39:25;;;;;;;13.80;11.13;;;;;;;5.59;100.00;99221.34;4962869;28;20210;-73
2021/11/20 02:41:56;;;;;;;14.00;10.97;;;;;;;5.53;100.00;99222.59;4975362;28;20602;-71
2021/11/20 02:44:26;;;;;;;12.27;10.97;;;;;;;5.58;100.00;99223.13;4940496;28;20225;-72
2021/11/20 02:46:59;;;;;;;14.37;10.53;;;;;;;5.53;100.00;99225.22;4976965;28;20209;-71
2021/11/20 02:49:27;;;;;;;14.07;11.87;;;;;;;5.54;100.00;99224.28;4979323;28;20229;-73
2021/11/20 02:51:58;;;;;;;13.40;10.47;;;;;;;5.54;100.00;99224.28;4975951;28;20205;-72
2021/11/20 02:54:28;;;;;;;11.77;10.30;;;;;;;5.48;100.00;99217.63;4964862;28;20238;-73
2021/11/20 02:56:59;;;;;;;12.03;10.73;;;;;;;5.52;100.00;99217.44;4980148;28;20213;-73
2021/11/20 02:59:27;;;;;;;12.20;9.83;;;;;;;5.54;100.00;99218.19;4979737;28;20206;-74
2021/11/20 03:01:57;;;;;;;14.60;11.07;;;;;;;5.52;100.00;99210.38;4947900;28;20824;-73
2021/11/20 03:04:26;;;;;;;14.20;11.03;;;;;;;5.50;100.00;99199.97;4976320;28;20738;-73
2021/11/20 03:06:57;;;;;;;14.00;11.43;;;;;;;5.49;100.00;99207.97;4981610;28;20233;-73
2021/11/20 03:09:27;;;;;;;14.87;10.93;;;;;;;5.45;100.00;99202.03;4969774;28;20729;-73
2021/11/20 03:11:56;;;;;;;14.07;11.17;;;;;;;5.45;100.00;99209.09;4978017;28;20220;-73
2021/11/20 03:14:25;;;;;;;12.27;10.97;;;;;;;5.45;100.00;99199.41;4987540;28;20230;-72
2021/11/20 03:16:54;;;;;;;13.23;11.10;;;;;;;5.42;100.00;99199.63;4938582;28;20211;-73
2021/11/20 03:19:27;;;;;;;12.47;10.57;;;;;;;5.48;100.00;99193.97;4974154;28;20245;-73
2021/11/20 03:21:57;;;;;;;14.07;10.90;;;;;;;5.49;100.00;99189.56;4978516;28;20221;-73
2021/11/20 03:24:27;;;;;;;16.20;12.40;;;;;;;5.50;100.00;99194.72;4962673;28;21527;-72
2021/11/20 03:26:57;;;;;;;11.50;9.90;;;;;;;5.46;100.00;99192.38;4977416;28;20206;-73
2021/11/20 03:29:26;;;;;;;17.20;10.90;;;;;;;5.48;100.00;99188.69;4971908;28;20206;-73
2021/11/20 03:31:55;;;;;;;13.87;11.20;;;;;;;5.41;100.00;99190.06;4935932;28;20213;-73
2021/11/20 03:34:30;;;;;;;15.53;11.87;;;;;;;5.45;100.00;99182.81;4961652;28;20236;-73
2021/11/20 03:36:58;;;;;;;14.63;11.13;;;;;;;5.42;100.00;99181.22;4973168;28;20876;-73
2021/11/20 03:39:26;;;;;;;13.83;11.43;;;;;;;5.42;100.00;99186.47;4977868;28;20233;-73
2021/11/20 03:41:54;;;;;;;12.43;10.63;;;;;;;5.47;100.00;99181.75;4965082;28;20929;-72
2021/11/20 03:44:23;;;;;;;15.00;11.77;;;;;;;5.44;100.00;99186.41;4969243;28;20360;-73
2021/11/20 03:46:52;;;;;;;13.60;11.17;;;;;;;5.41;100.00;99181.34;4969122;28;20209;-72
2021/11/20 03:49:21;;;;;;;17.33;12.17;;;;;;;5.39;100.00;99172.72;4961054;28;20210;-73
2021/11/20 03:51:50;;;;;;;15.63;12.00;;;;;;;5.49;100.00;99179.91;4976509;28;20216;-73
2021/11/20 03:54:18;;;;;;;11.80;10.50;;;;;;;5.42;100.00;99175.13;4977901;28;20241;-72
2021/11/20 03:56:46;;;;;;;13.33;10.67;;;;;;;5.39;100.00;99165.66;4973445;28;20569;-72
2021/11/20 03:59:14;;;;;;;15.23;11.27;;;;;;;5.45;100.00;99173.13;4977594;28;20206;-73
2021/11/20 04:01:48;;;;;;;11.80;10.60;;;;;;;5.42;100.00;99172.50;4975860;28;20228;-72
2021/11/20 04:04:16;;;;;;;12.07;10.77;;;;;;;5.42;100.00;99170.72;4936908;28;20804;-73
2021/11/20 04:06:45;;;;;;;15.97;11.83;;;;;;;5.46;100.00;99166.09;4976057;28;20218;-73
2021/11/20 04:09:15;;;;;;;14.33;12.03;;;;;;;5.39;100.00;99162.19;4981765;28;20313;-73
2021/11/20 04:11:45;;;;;;;14.20;11.20;;;;;;;5.39;100.00;99168.28;4980940;28;20210;-73
2021/11/20 04:14:17;;;;;;;13.83;11.00;;;;;;;5.47;100.00;99183.56;4977645;28;20826;-73
2021/11/20 04:16:46;;;;;;;15.67;11.87;;;;;;;5.49;100.00;99176.41;4978246;28;20201;-72
2021/11/20 04:19:14;;;;;;;14.80;11.77;;;;;;;5.41;100.00;99166.38;4937223;28;20218;-73
2021/11/20 04:21:42;;;;;;;14.07;10.60;;;;;;;5.39;100.00;99160.41;4982242;28;20220;-73
2021/11/20 04:24:11;;;;;;;14.90;11.40;;;;;;;5.36;100.00;99161.47;4974357;28;20234;-73
2021/11/20 04:26:41;;;;;;;13.40;10.77;;;;;;;5.36;100.00;99161.47;4987889;28;20201;-72
2021/11/20 04:29:09;;;;;;;11.23;9.97;;;;;;;5.35;100.00;99161.56;4977421;28;20206;-73
2021/11/20 04:31:37;;;;;;;14.60;10.67;;;;;;;5.39;100.00;99159.56;4978396;28;20232;-73
2021/11/20 04:34:05;;;;;;;15.20;11.83;;;;;;;5.36;100.00;99155.34;4940748;28;22681;-71
2021/11/20 04:36:34;;;;;;;13.10;11.33;;;;;;;5.33;100.00;99152.91;4972862;28;20213;-73
2021/11/20 04:39:04;;;;;;;15.17;11.63;;;;;;;5.38;100.00;99145.56;4977512;28;20205;-72
2021/11/20 04:41:32;;;;;;;16.13;12.43;;;;;;;5.36;100.00;99148.31;4978699;28;20210;-73
2021/11/20 04:44:02;;;;;;;19.27;12.90;;;;;;;5.33;100.00;99139.78;4970341;28;20229;-72
2021/11/20 04:46:30;;;;;;;14.63;12.13;;;;;;;5.32;100.00;99144.22;4978364;28;20209;-73
2021/11/20 04:48:58;;;;;;;16.53;11.63;;;;;;;5.34;100.00;99139.69;4971050;28;20251;-73
2021/11/20 04:51:27;;;;;;;14.83;10.97;;;;;;;5.32;100.00;99140.72;4945310;28;20223;-73
2021/11/20 04:53:56;;;;;;;15.33;10.37;;;;;;;5.36;100.00;99132.53;4970944;28;20225;-72
2021/11/20 04:56:25;;;;;;;14.20;10.97;;;;;;;5.34;100.00;99133.56;4977124;28;20217;-72
2021/11/20 04:58:54;;;;;;;13.60;9.97;;;;;;;5.30;100.00;99130.34;4973918;28;20573;-73
2021/11/20 05:01:25;;;;;;;16.00;11.60;;;;;;;5.33;100.00;99130.13;4977770;28;20218;-73
2021/11/20 05:03:54;;;;;;;15.03;11.03;;;;;;;5.28;100.00;99123.47;4974256;28;20296;-72
2021/11/20 05:06:25;;;;;;;15.00;10.83;;;;;;;5.29;100.00;99131.25;4941128;28;20213;-72
2021/11/20 05:08:53;;;;;;;11.63;9.53;;;;;;;5.29;100.00;99133.88;4979335;28;20214;-72
2021/11/20 05:11:21;;;;;;;14.27;11.37;;;;;;;5.36;100.00;99131.69;4968293;28;20454;-75
2021/11/20 05:13:50;;;;;;;13.47;10.50;;;;;;;5.35;100.00;99125.59;4984988;28;20243;-72
2021/11/20 05:16:19;;;;;;;14.13;11.50;;;;;;;5.42;100.00;99131.28;4968393;28;20601;-74
2021/11/20 05:18:48;;;;;;;15.10;12.07;;;;;;;5.49;100.00;99132.56;4977400;28;20862;-73
2021/11/20 05:21:18;;;;;;;11.40;10.23;;;;;;;5.47;100.00;99123.91;4958061;28;20667;-76
2021/11/20 05:23:47;;;;;;;16.00;11.60;;;;;;;5.46;100.00;99127.50;4953006;28;20697;-72
2021/11/20 05:26:16;;;;;;;14.03;11.13;;;;;;;5.55;100.00;99125.22;4962506;28;20729;-73
2021/11/20 05:28:50;;;;;;;15.43;11.93;;;;;;;5.49;100.00;99124.69;4957956;28;20299;-72
2021/11/20 05:31:19;;;;;;;15.23;11.40;;;;;;;5.49;100.00;99124.69;4974673;28;20209;-73
2021/11/20 05:33:50;;;;;;;17.10;11.13;;;;;;;5.42;100.00;99128.63;4966747;28;20296;-73
2021/11/20 05:36:25;;;;;;;13.27;11.10;;;;;;;5.41;100.00;99134.03;4972153;28;20214;-71
2021/11/20 05:38:53;;;;;;;17.30;10.60;;;;;;;5.42;100.00;99130.44;4952012;28;20232;-68
2021/11/20 05:41:21;;;;;;;13.23;10.53;;;;;;;5.43;100.00;99130.31;4928645;28;21109;-69
2021/11/20 05:43:49;;;;;;;15.00;10.40;;;;;;;5.41;100.00;99126.13;4966247;28;20325;-68
2021/11/20 05:46:20;;;;;;;14.47;10.43;;;;;;;5.38;100.00;99134.22;4987266;28;20217;-69
2021/11/20 05:48:50;;;;;;;14.27;10.57;;;;;;;5.35;100.00;99135.25;4959501;28;20216;-68
2021/11/20 05:51:18;;;;;;;13.90;10.70;;;;;;;5.34;100.00;99129.19;4974309;28;20209;-69
2021/11/20 05:53:46;;;;;;;15.80;11.67;;;;;;;5.34;100.00;99123.91;4960531;28;20202;-70
2021/11/20 05:56:14;;;;;;;12.50;11.00;;;;;;;5.37;100.00;99128.13;4947916;28;20549;-69
2021/11/20 05:59:03;;;;;;;15.30;11.60;;;;;;;5.35;100.00;99122.13;4957165;28;20214;-69
2021/11/20 06:01:31;;;;;;;15.13;12.93;;;;;;;5.31;100.00;99120.63;4971881;28;20201;-69
2021/11/20 06:04:01;;;;;;;14.50;12.03;;;;;;;5.35;100.00;99117.72;4968310;28;20225;-69
2021/11/20 06:06:29;;;;;;;13.67;11.20;;;;;;;5.31;100.00;99118.00;4966394;28;20220;-70
2021/11/20 06:08:57;;;;;;;14.13;12.63;;;;;;;5.38;100.00;99124.53;4967741;28;20218;-73
2021/11/20 06:11:30;;;;;;;14.30;11.90;;;;;;;5.32;100.00;99130.22;4952879;28;20209;-72
2021/11/20 06:13:59;;;;;;;14.70;12.07;;;;;;;5.41;100.00;99126.97;4957365;28;21168;-73
2021/11/20 06:16:27;;;;;;;14.13;11.63;;;;;;;5.40;100.00;99127.09;4973286;28;20232;-72
2021/11/20 06:18:55;;;;;;;15.23;10.63;;;;;;;5.44;100.00;99124.13;4957772;28;20232;-73
2021/11/20 06:21:25;;;;;;;14.57;11.33;;;;;;;5.39;100.00;99131.47;4963100;28;20304;-72
2021/11/20 06:23:53;;;;;;;18.73;14.07;;;;;;;5.44;100.00;99134.63;4975282;28;20313;-73
2021/11/20 06:26:22;;;;;;;18.23;13.73;;;;;;;5.36;100.00;99142.19;4967560;28;20268;-72
2021/11/20 06:28:50;;;;;;;16.00;12.80;;;;;;;5.36;100.00;99135.16;4946124;28;20221;-73
2021/11/20 06:31:19;;;;;;;12.07;10.87;;;;;;;5.35;100.00;99135.25;4973045;28;20232;-72
2021/11/20 06:33:47;;;;;;;14.47;11.27;;;;;;;5.41;100.00;99129.59;4976265;28;20213;-72
2021/11/20 06:36:15;;;;;;;11.83;10.63;;;;;;;5.46;100.00;99129.28;4965959;28;20268;-72
2021/11/20 06:38:45;;;;;;;15.70;11.00;;;;;;;5.60;100.00;99128.38;4981663;28;20347;-72
2021/11/20 06:41:13;;;;;;;13.80;11.33;;;;;;;5.52;100.00;99133.31;4970872;28;20298;-72
2021/11/20 06:43:41;;;;;;;13.43;10.93;;;;;;;5.56;100.00;99129.53;4950649;28;21226;-73
2021/11/20 06:46:13;;;;;;;12.93;10.07;;;;;;;5.63;100.00;99133.41;4973176;28;20229;-72
2021/11/20 06:48:41;;;;;;;14.10;10.93;;;;;;;5.72;100.00;99129.31;4972388;28;20214;-73
2021/11/20 06:51:10;;;;;;;13.13;10.33;;;;;;;5.62;100.00;99135.19;4962374;28;20700;-71
2021/11/20 06:53:39;;;;;;;14.30;12.17;;;;;;;5.63;100.00;99128.16;4978982;28;20206;-72
2021/11/20 06:56:13;;;;;;;13.67;11.13;;;;;;;5.67;100.00;99121.72;4966140;28;20240;-73
2021/11/20 07:01:37;;;;;;;12.80;10.67;;;;;;;5.74;100.00;99120.34;4943820;28;20209;-74
2021/11/20 07:04:13;;;;;;;14.30;10.93;;;;;;;5.79;100.00;99117.41;4969324;28;20233;-73
2021/11/20 07:06:44;;;;;;;12.53;10.27;;;;;;;6.02;100.00;99115.00;4966760;28;20213;-71
2021/11/20 07:09:12;;;;;;;12.37;10.47;;;;;;;6.04;100.00;99115.72;4973292;28;20209;-72
2021/11/20 07:11:42;;;;;;;13.23;10.63;;;;;;;5.91;100.00;99115.75;4968862;28;22223;-72
2021/11/20 07:14:10;;;;;;;13.23;11.93;;;;;;;5.88;100.00;99123.84;4966630;28;20235;-72
2021/11/20 07:16:39;;;;;;;13.97;9.93;;;;;;;6.06;100.00;99116.47;4959117;28;20214;-72
2021/11/20 07:19:07;;;;;;;13.60;10.93;;;;;;;5.91;100.00;99113.09;4982670;28;20707;-71
2021/11/20 07:21:35;;;;;;;12.17;10.83;;;;;;;5.91;100.00;99118.38;4960883;28;20256;-73
2021/11/20 07:24:07;;;;;;;15.17;11.70;;;;;;;5.97;100.00;99110.03;4957717;28;20295;-72
2021/11/20 07:26:35;;;;;;;12.93;9.77;;;;;;;6.02;100.00;99107.09;4974931;28;20241;-71
2021/11/20 07:29:05;;;;;;;12.50;10.43;;;;;;;6.02;100.00;99104.47;4955372;28;21022;-73
2021/11/20 07:31:42;;;;;;;13.53;10.90;;;;;;;6.12;100.00;99112.56;4950579;28;20213;-72
2021/11/20 07:34:11;;;;;;;13.97;10.97;;;;;;;6.07;100.00;99111.09;4972780;28;20228;-72
2021/11/20 07:36:40;;;;;;;13.50;11.13;;;;;;;5.97;100.00;99114.44;4967635;28;20276;-71
2021/11/20 07:39:11;;;;;;;12.63;11.27;;;;;;;5.90;100.00;99111.44;4977771;28;20201;-71
2021/11/20 07:41:39;;;;;;;16.53;12.10;;;;;;;6.00;100.00;99115.09;4979688;28;20205;-72
2021/11/20 07:44:10;;;;;;;15.07;11.40;;;;;;;6.08;100.00;99109.31;4971978;28;20221;-72
2021/11/20 07:46:40;;;;;;;13.70;11.77;;;;;;;5.99;100.00;99102.88;4950022;28;20985;-72
2021/11/20 07:49:08;;;;;;;15.50;11.67;;;;;;;6.01;100.00;99106.28;4935227;28;20224;-71
2021/11/20 07:51:37;;;;;;;14.17;12.30;;;;;;;6.06;100.00;99101.53;4964276;28;20697;-72
2021/11/20 07:54:05;;;;;;;15.87;12.40;;;;;;;6.07;100.00;99103.22;4968695;28;20240;-71
2021/11/20 07:56:39;;;;;;;13.87;12.10;;;;;;;5.97;100.00;99098.66;4967504;28;20217;-72
2021/11/20 07:59:08;;;;;;;16.83;11.90;;;;;;;6.09;100.00;99103.13;4956028;28;20233;-71
2021/11/20 08:01:36;;;;;;;14.90;11.13;;;;;;;5.99;100.00;99104.66;4971721;28;20210;-72
2021/11/20 08:04:05;;;;;;;13.50;10.97;;;;;;;6.05;100.00;99099.84;4942225;28;20237;-70
2021/11/20 08:06:34;;;;;;;14.27;11.03;;;;;;;6.04;100.00;99098.16;4970190;28;20221;-72
2021/11/20 08:09:05;;;;;;;15.63;11.97;;;;;;;6.03;100.00;99096.47;4972039;28;20650;-71
2021/11/20 08:11:34;;;;;;;13.10;10.97;;;;;;;6.02;100.00;99092.16;4971589;28;20209;-71
2021/11/20 08:14:03;;;;;;;14.03;11.90;;;;;;;6.18;100.00;99091.06;4957740;28;20324;-70
2021/11/20 08:16:33;;;;;;;13.37;11.20;;;;;;;6.19;100.00;99090.97;4978185;28;20198;-70
2021/11/20 08:19:02;;;;;;;15.07;11.13;;;;;;;6.20;100.00;99099.69;4959430;28;20213;-70
2021/11/20 08:21:30;;;;;;;13.90;11.87;;;;;;;6.18;100.00;99089.28;4954851;28;20221;-70
2021/11/20 08:23:58;;;;;;;13.77;11.27;;;;;;;6.34;100.00;99089.03;4971882;28;20721;-72
2021/11/20 08:26:35;;;;;;;13.77;11.07;;;;;;;6.41;100.00;99088.59;4959482;28;20236;-70
2021/11/20 08:29:06;;;;;;;15.13;11.27;;;;;;;6.40;100.00;99085.13;4965316;28;20221;-71
2021/11/20 08:31:36;;;;;;;13.17;11.43;;;;;;;6.40;100.00;99084.28;4973364;28;20859;-71
2021/11/20 08:34:04;;;;;;;13.57;10.47;;;;;;;6.48;100.00;99079.31;4977093;28;20763;-70
2021/11/20 08:36:32;;;;;;;14.67;12.17;;;;;;;6.46;100.00;99074.16;4958811;28;20215;-72
2021/11/20 08:39:00;;;;;;;14.83;11.90;;;;;;;6.43;100.00;99076.16;4975579;28;20196;-72
2021/11/20 08:41:28;;;;;;;14.13;11.33;;;;;;;6.41;100.00;99071.00;4969506;28;20208;-71
2021/11/20 08:43:56;;;;;;;13.20;10.70;;;;;;;6.48;100.00;99068.78;4964275;28;20233;-71
2021/11/20 08:46:24;;;;;;;12.60;11.13;;;;;;;6.41;100.00;99068.34;4975123;28;20238;-70
2021/11/20 08:48:54;;;;;;;14.87;13.27;;;;;;;6.54;100.00;99068.31;4982069;28;20237;-71
2021/11/20 08:51:24;;;;;;;12.60;11.30;;;;;;;6.55;100.00;99067.38;4957272;28;20224;-71
2021/11/20 08:53:52;;;;;;;12.73;11.43;;;;;;;6.64;100.00;99066.72;4978041;28;20241;-71
2021/11/20 08:56:21;;;;;;;17.73;13.60;;;;;;;6.72;100.00;99062.66;4971459;28;20228;-71
2021/11/20 08:58:50;;;;;;;15.63;12.73;;;;;;;6.69;100.00;99055.00;4970840;28;20218;-72
2021/11/20 09:01:22;;;;;;;15.60;12.27;;;;;;;6.72;100.00;99060.03;4963859;28;20220;-71
2021/11/20 09:03:57;;;;;;;12.67;11.10;;;;;;;6.78;100.00;99056.94;4974166;28;20241;-71
2021/11/20 09:06:28;;;;;;;12.73;10.93;;;;;;;6.76;100.00;99057.03;4946585;28;20236;-71
2021/11/20 09:09:01;;;;;;;13.63;11.03;;;;;;;6.83;100.00;99051.34;4987498;28;20210;-71
2021/11/20 09:11:33;;;;;;;12.47;11.00;;;;;;;6.79;100.00;99056.81;4974321;28;20209;-71
2021/11/20 09:14:06;;;;;;;14.43;12.27;;;;;;;6.88;100.00;99046.56;4972968;28;20229;-71
2021/11/20 09:16:34;;;;;;;13.67;11.37;;;;;;;6.90;100.00;99049.94;4965592;28;20241;-72
2021/11/20 09:19:05;;;;;;;15.10;13.13;;;;;;;7.05;100.00;99048.75;4974173;28;20201;-70
2021/11/20 09:21:40;;;;;;;12.60;11.07;;;;;;;7.04;100.00;99041.81;4943270;28;20767;-70
2021/11/20 09:24:08;;;;;;;11.90;10.70;;;;;;;6.98;100.00;99049.34;4978755;28;20225;-70
2021/11/20 09:26:38;;;;;;;14.13;12.63;;;;;;;7.21;100.00;99052.91;4975491;28;20237;-70
2021/11/20 09:29:08;;;;;;;15.37;10.80;;;;;;;7.44;100.00;99045.00;4974097;28;20605;-71
2021/11/20 09:31:40;;;;;;;16.90;12.90;;;;;;;7.51;100.00;99043.56;4971789;28;20210;-71
2021/11/20 09:34:10;;;;;;;16.53;12.83;;;;;;;7.68;100.00;99034.34;4974053;28;20802;-70
2021/11/20 09:36:38;;;;;;;13.70;11.67;;;;;;;7.58;100.00;99044.81;4974973;28;20522;-71
2021/11/20 09:39:08;;;;;;;14.77;12.03;;;;;;;7.49;100.00;99038.44;4950781;28;20902;-70
2021/11/20 09:41:44;;;;;;;12.77;11.20;;;;;;;7.55;100.00;99037.09;4970037;28;20213;-70
2021/11/20 09:44:13;;;;;;;12.27;10.93;;;;;;;7.55;100.00;99029.19;4969892;28;20230;-70
2021/11/20 09:46:45;;;;;;;12.40;11.17;;;;;;;7.65;100.00;99027.53;4965734;28;20237;-70
2021/11/20 09:49:18;;;;;;;11.73;10.50;;;;;;;7.59;100.00;99022.75;4976879;28;20562;-72
2021/11/20 09:51:48;;;;;;;14.27;11.30;;;;;;;7.43;100.00;99023.09;4975825;28;20208;-70
2021/11/20 09:54:19;;;;;;;14.73;11.77;;;;;;;7.60;100.00;99018.28;4950425;28;20221;-70
2021/11/20 09:56:59;;;;;;;15.77;10.90;;;;;;;7.83;100.00;99011.19;4943332;28;20308;-73
2021/11/20 09:59:42;;;;;;;14.33;12.13;;;;;;;7.97;100.00;99015.38;4973428;28;20213;-70
2021/11/20 10:02:13;;;;;;;13.67;11.57;;;;;;;7.76;100.00;99010.84;4975103;28;20736;-70
2021/11/20 10:04:53;;;;;;;14.37;12.03;;;;;;;7.96;100.00;99000.50;4964126;28;20256;-70
2021/11/20 10:07:28;;;;;;;13.10;11.80;;;;;;;8.34;100.00;99001.88;4979234;28;20229;-70
2021/11/20 10:10:01;;;;;;;14.23;12.73;;;;;;;8.38;100.00;98999.81;4937928;28;21757;-71
2021/11/20 10:12:34;;;;;;;17.40;12.70;;;;;;;8.18;100.00;99001.44;4972480;28;20214;-70
2021/11/20 10:15:10;;;;;;;14.17;11.50;;;;;;;8.10;100.00;98997.59;4975517;28;20225;-71
2021/11/20 10:17:42;;;;;;;13.17;11.63;;;;;;;8.03;100.00;98988.50;4970575;28;20201;-70
2021/11/20 10:20:24;;;;;;;12.43;11.23;;;;;;;8.20;100.00;98976.56;4969294;28;20216;-69
2021/11/20 10:22:58;;;;;;;15.23;13.43;;;;;;;8.33;100.00;98979.06;4974783;28;20913;-71
2021/11/20 10:25:52;;;;;;;15.27;12.70;;;;;;;8.36;100.00;98983.25;4946494;28;20229;-70
2021/11/20 10:28:33;;;;;;;11.90;10.70;;;;;;;8.25;100.00;98968.28;4977542;28;20198;-70
2021/11/20 10:31:04;;;;;;;12.83;11.53;;;;;;;8.17;100.00;98973.34;4974827;28;20229;-71
2021/11/20 10:33:35;;;;;;;13.40;11.97;;;;;;;8.28;100.00;98964.53;4971841;28;20205;-70
2021/11/20 10:36:23;;;;;;;13.63;10.93;;;;;;;8.12;100.00;98963.16;4975138;28;20613;-70
2021/11/20 10:39:07;;;;;;;13.93;12.53;;;;;;;8.00;100.00;98958.88;4964345;28;20872;-71
2021/11/20 10:41:38;;;;;;;13.07;11.77;;;;;;;7.99;100.00;98957.22;4949152;28;20586;-70
2021/11/20 10:44:18;;;;;;;13.87;11.77;;;;;;;8.09;100.00;98945.75;4975363;28;20237;-71
2021/11/20 10:46:59;;;;;;;14.53;11.83;;;;;;;8.09;100.00;98943.13;4972547;28;20225;-71
2021/11/20 10:49:50;;;;;;;16.70;12.97;;;;;;;8.23;100.00;98943.81;4981685;28;21092;-70
2021/11/20 10:52:33;;;;;;;14.40;12.23;;;;;;;8.29;100.00;98945.09;4976203;28;20220;-71
2021/11/20 10:55:13;;;;;;;16.07;13.60;;;;;;;8.26;100.00;98939.09;4966993;28;20879;-71
2021/11/20 10:57:57;;;;;;;14.20;12.23;;;;;;;8.24;100.00;98948.94;4949777;28;21110;-72
2021/11/20 11:00:31;;;;;;;13.13;11.73;;;;;;;8.24;100.00;98935.75;4977354;28;20217;-70
2021/11/20 11:03:38;;;;;;;12.80;11.60;;;;;;;8.25;100.00;98931.31;4976763;28;20850;-71
2021/11/20 11:06:41;;;;;;;12.93;11.63;;;;;;;8.50;100.00;98927.50;4979121;28;20205;-71
2021/11/20 11:09:20;;;;;;;12.13;10.83;;;;;;;8.45;100.00;98928.81;4977076;28;20209;-71
2021/11/20 11:11:54;;;;;;;13.10;11.43;;;;;;;8.26;100.00;98930.34;4936783;28;24990;-70
2021/11/20 11:14:39;;;;;;;13.00;11.70;;;;;;;8.34;100.00;98911.25;4978506;28;20840;-70
2021/11/20 11:17:14;;;;;;;14.40;12.10;;;;;;;8.35;100.00;98907.63;4978096;28;20222;-71
2021/11/20 11:19:50;;;;;;;13.90;11.73;;;;;;;8.32;100.00;98908.72;4976159;28;20205;-71
2021/11/20 11:22:24;;;;;;;13.60;11.17;;;;;;;8.33;100.00;98907.75;4978796;28;20209;-72
2021/11/20 11:25:11;;;;;;;13.17;11.23;;;;;;;8.64;100.00;98907.88;4987899;28;21720;-71
2021/11/20 11:27:51;;;;;;;12.00;10.80;;;;;;;8.40;100.00;98893.06;4943761;28;20237;-70
2021/11/20 11:30:25;;;;;;;13.23;11.77;;;;;;;8.40;100.00;98886.97;4979591;28;20213;-71
2021/11/20 11:32:54;;;;;;;15.30;10.70;;;;;;;8.47;100.00;98881.97;4984383;28;20317;-70
2021/11/20 11:35:26;;;;;;;11.63;10.23;;;;;;;8.63;100.00;98887.69;4975431;28;20229;-70
2021/11/20 11:38:53;;;;;;;13.53;11.13;;;;;;;8.71;100.00;98873.81;4970990;28;20260;-70